Terminal Aerodrome Forecast
Issued by NWS

Home | Current Version | Previous Version | Text Only | Print | Product List | Glossary On
Versions: 1 2 3 4 5 6 7 8 9 10 11 12 13 14 15 16 17 18 19 20
000
FTUS44 KHGX 201000 AAA
TAFCXO
TAF AMD
KCXO 201000Z 2010/2106 00000KT P6SM SKC
      TEMPO 2011/2014 BKN015
     FM201500 22004KT P6SM FEW035
     FM202100 13006KT P6SM VCTS SCT050CB
     FM210100 12008KT P6SM VCSH SCT050 BKN250
     FM210400 16005KT P6SM FEW080 BKN250=

USA.gov is the U.S. government's official web portal to all federal, state and local government web resources and services.